createdAt,value
2023-05-09T00:01:46.860Z,37.22
2023-05-09T00:04:13.717Z,34.97
2023-05-09T00:06:40.807Z,36.72
2023-05-09T00:09:07.274Z,37.08
2023-05-09T00:11:34.267Z,36.67
2023-05-09T00:14:01.754Z,32.50
2023-05-09T00:16:28.295Z,38.15
2023-05-09T00:18:55.307Z,35.33
2023-05-09T00:21:21.608Z,36.45
2023-05-09T00:23:48.566Z,33.53
2023-05-09T00:26:15.551Z,30.42
2023-05-09T00:28:41.844Z,29.30
2023-05-09T00:31:08.124Z,28.45
2023-05-09T00:33:34.426Z,29.92
2023-05-09T00:36:00.767Z,32.10
2023-05-09T00:38:27.487Z,31.17
2023-05-09T00:40:54.455Z,32.30
2023-05-09T00:43:21.024Z,31.75
2023-05-09T00:45:47.804Z,31.75
2023-05-09T00:48:14.853Z,31.05
2023-05-09T00:50:41.144Z,30.13
2023-05-09T00:53:08.358Z,33.25
2023-05-09T00:55:35.146Z,33.80
2023-05-09T00:58:03.063Z,30.55
2023-05-09T01:00:29.695Z,29.27
2023-05-09T01:02:56.685Z,38.65
2023-05-09T01:05:28.910Z,31.80
2023-05-09T01:08:02.716Z,32.97
2023-05-09T01:10:35.084Z,31.00
2023-05-09T01:13:05.799Z,33.25
2023-05-09T01:15:37.537Z,32.38
2023-05-09T01:18:11.310Z,31.27
2023-05-09T01:20:44.778Z,29.25
2023-05-09T01:23:25.776Z,38.75
2023-05-09T01:26:01.582Z,29.52
2023-05-09T01:28:41.296Z,31.17
2023-05-09T01:31:09.352Z,34.67
2023-05-09T01:33:39.854Z,31.17
2023-05-09T01:36:11.978Z,34.60
2023-05-09T01:38:39.922Z,30.30
2023-05-09T01:41:09.032Z,29.80
2023-05-09T01:43:37.907Z,31.80
2023-05-09T01:46:05.088Z,33.72
2023-05-09T01:48:36.049Z,28.70
2023-05-09T01:51:04.784Z,32.17
2023-05-09T01:53:32.217Z,29.65
2023-05-09T01:56:00.252Z,27.48
2023-05-09T01:58:27.549Z,30.08
2023-05-09T02:00:53.962Z,29.45
2023-05-09T02:03:21.930Z,29.63
2023-05-09T02:05:50.020Z,30.25
2023-05-09T02:08:20.358Z,30.70
2023-05-09T02:10:48.212Z,29.00
2023-05-09T02:13:14.620Z,29.50
2023-05-09T02:15:41.773Z,30.42
2023-05-09T02:18:08.052Z,29.75
2023-05-09T02:20:35.312Z,30.23
2023-05-09T02:23:02.795Z,28.95
2023-05-09T02:25:29.664Z,30.23
2023-05-09T02:27:57.837Z,32.05
2023-05-09T02:30:25.714Z,31.05
2023-05-09T02:32:56.263Z,29.50
2023-05-09T02:35:24.641Z,28.58
2023-05-09T02:37:51.210Z,30.52
2023-05-09T02:40:20.060Z,28.63
2023-05-09T02:42:46.350Z,31.75
2023-05-09T02:45:13.083Z,31.20
2023-05-09T02:47:39.673Z,29.77
2023-05-09T02:50:07.068Z,31.20
2023-05-09T02:52:33.393Z,29.30
2023-05-09T02:54:59.772Z,29.25
2023-05-09T02:57:26.709Z,28.65
2023-05-09T02:59:53.007Z,31.67
2023-05-09T03:02:19.416Z,28.00
2023-05-09T03:04:45.942Z,33.13
2023-05-09T03:07:12.218Z,33.13
2023-05-09T03:09:41.029Z,32.50
2023-05-09T03:12:07.620Z,28.77
2023-05-09T03:14:34.589Z,31.48
2023-05-09T03:17:00.899Z,33.78
2023-05-09T03:19:27.148Z,29.35
2023-05-09T03:21:53.694Z,26.20
2023-05-09T03:24:20.029Z,32.38
2023-05-09T03:26:46.287Z,28.33
2023-05-09T03:29:12.592Z,32.63
2023-05-09T03:31:39.558Z,30.00
2023-05-09T03:34:06.036Z,29.55
2023-05-09T03:36:32.316Z,29.95
2023-05-09T03:38:58.614Z,29.95
2023-05-09T03:41:25.488Z,28.73
2023-05-09T03:43:51.763Z,28.38
2023-05-09T03:46:18.080Z,30.40
2023-05-09T03:48:45.068Z,30.23
2023-05-09T03:51:11.560Z,29.50
2023-05-09T03:53:37.817Z,26.30
2023-05-09T03:56:04.330Z,27.85
2023-05-09T03:58:30.611Z,26.08
2023-05-09T04:00:56.914Z,27.98
2023-05-09T04:03:23.318Z,30.23
2023-05-09T04:05:50.374Z,29.23
2023-05-09T04:08:16.752Z,29.25
2023-05-09T04:10:43.029Z,28.55
2023-05-09T04:13:09.332Z,30.40
2023-05-09T04:15:35.600Z,29.55
2023-05-09T04:18:02.618Z,30.83
2023-05-09T04:20:28.995Z,32.30
2023-05-09T04:22:55.914Z,32.28
2023-05-09T04:25:22.792Z,30.52
2023-05-09T04:27:49.122Z,33.67
2023-05-09T04:30:15.897Z,34.50
2023-05-09T04:32:45.163Z,34.00
2023-05-09T04:35:11.706Z,31.73
2023-05-09T04:37:38.256Z,30.00
2023-05-09T04:40:07.460Z,33.25
2023-05-09T04:42:35.196Z,33.58
2023-05-09T04:45:01.454Z,30.98
2023-05-09T04:47:27.837Z,30.05
2023-05-09T04:49:54.198Z,30.77
2023-05-09T04:52:20.744Z,27.38
2023-05-09T04:54:47.037Z,29.45
2023-05-09T04:57:18.406Z,28.08
2023-05-09T04:59:45.397Z,29.38
2023-05-09T05:02:12.426Z,30.88
2023-05-09T05:04:38.791Z,30.20
2023-05-09T05:07:05.125Z,30.65
2023-05-09T05:09:31.493Z,30.48
2023-05-09T05:12:01.266Z,28.05
2023-05-09T05:14:30.167Z,28.50
2023-05-09T05:16:56.450Z,29.10
2023-05-09T05:19:22.733Z,31.80
2023-05-09T05:21:49.034Z,26.55
2023-05-09T05:24:15.308Z,27.50
2023-05-09T05:26:41.663Z,25.90
2023-05-09T05:29:08.100Z,29.85
2023-05-09T05:31:35.584Z,29.95
2023-05-09T05:34:02.441Z,27.83
2023-05-09T05:36:28.727Z,30.92
2023-05-09T05:38:55.088Z,29.80
2023-05-09T05:41:21.674Z,27.80
2023-05-09T05:43:47.951Z,26.67
2023-05-09T05:46:14.285Z,27.40
2023-05-09T05:48:41.318Z,28.17
2023-05-09T05:51:07.602Z,26.83
2023-05-09T05:53:33.947Z,26.17
2023-05-09T05:56:00.300Z,27.10
2023-05-09T05:58:27.297Z,28.42
2023-05-09T06:00:53.553Z,26.33
2023-05-09T06:03:20.009Z,23.15
2023-05-09T06:05:47.602Z,25.70
2023-05-09T06:08:13.991Z,23.48
2023-05-09T06:10:40.917Z,23.83
2023-05-09T06:13:07.298Z,20.38
2023-05-09T06:15:33.802Z,28.02
2023-05-09T06:18:00.217Z,23.63
2023-05-09T06:20:26.602Z,23.48
2023-05-09T06:22:53.618Z,20.05
2023-05-09T06:25:20.184Z,21.25
2023-05-09T06:27:46.432Z,22.38
2023-05-09T06:30:24.804Z,23.98
2023-05-09T06:32:52.497Z,22.67
2023-05-09T06:35:18.835Z,20.77
2023-05-09T06:37:46.986Z,21.38
2023-05-09T06:40:15.486Z,23.60
2023-05-09T06:42:41.771Z,22.23
2023-05-09T06:45:08.862Z,20.83
2023-05-09T06:47:35.276Z,18.73
2023-05-09T06:50:01.624Z,17.85
2023-05-09T06:52:27.918Z,19.65
2023-05-09T06:54:54.218Z,17.80
2023-05-09T06:57:21.416Z,18.65
2023-05-09T06:59:47.721Z,19.20
2023-05-09T07:02:14.110Z,18.75
2023-05-09T07:04:40.437Z,19.60
2023-05-09T07:07:06.904Z,16.90
2023-05-09T07:09:33.192Z,18.35
2023-05-09T07:11:59.882Z,19.63
2023-05-09T07:14:26.845Z,16.25
2023-05-09T07:16:53.278Z,18.13
2023-05-09T07:19:19.638Z,16.02
2023-05-09T07:21:46.006Z,17.42
2023-05-09T07:24:12.330Z,20.58
2023-05-09T07:26:38.656Z,16.90
2023-05-09T07:29:04.957Z,21.10
2023-05-09T07:31:31.942Z,17.15
2023-05-09T07:33:58.349Z,16.88
2023-05-09T07:36:24.658Z,18.38
2023-05-09T07:38:52.009Z,16.15
2023-05-09T07:41:18.484Z,16.77
2023-05-09T07:43:44.843Z,17.95
2023-05-09T07:46:11.176Z,17.90
2023-05-09T07:48:38.685Z,19.80
2023-05-09T07:51:05.055Z,15.75
2023-05-09T07:53:31.390Z,18.75
2023-05-09T07:55:58.260Z,20.13
2023-05-09T07:58:24.613Z,19.40
2023-05-09T08:00:50.891Z,16.50
2023-05-09T08:03:17.358Z,19.50
2023-05-09T08:05:44.431Z,15.57
2023-05-09T08:08:10.739Z,16.58
2023-05-09T08:10:37.175Z,15.02
2023-05-09T08:13:03.575Z,21.95
2023-05-09T08:15:30.550Z,16.10
2023-05-09T08:17:56.872Z,16.52
2023-05-09T08:20:23.574Z,16.42
2023-05-09T08:22:50.532Z,14.68
2023-05-09T08:25:17.662Z,14.55
2023-05-09T08:27:44.259Z,18.55
2023-05-09T08:30:11.951Z,16.00
2023-05-09T08:32:38.251Z,15.00
2023-05-09T08:35:05.560Z,13.55
2023-05-09T08:37:31.926Z,13.18
2023-05-09T08:39:58.935Z,13.20
2023-05-09T08:42:26.903Z,13.55
2023-05-09T08:44:53.226Z,12.15
2023-05-09T08:47:20.430Z,14.20
2023-05-09T08:49:48.526Z,11.48
2023-05-09T08:52:15.115Z,11.55
2023-05-09T08:54:42.171Z,14.05
2023-05-09T08:57:09.228Z,12.30
2023-05-09T08:59:37.443Z,11.98
2023-05-09T09:02:06.590Z,12.50
2023-05-09T09:04:34.313Z,9.55
2023-05-09T09:07:03.728Z,9.77
2023-05-09T09:09:30.146Z,10.05
2023-05-09T09:11:57.589Z,9.50
2023-05-09T09:14:26.888Z,8.70
2023-05-09T09:16:55.348Z,8.82
2023-05-09T09:19:26.174Z,7.75
2023-05-09T09:21:55.927Z,8.73
2023-05-09T09:24:23.039Z,10.73
2023-05-09T09:26:50.760Z,8.93
2023-05-09T09:32:05.132Z,8.63
2023-05-09T09:34:31.482Z,10.85
2023-05-09T09:36:58.297Z,10.55
2023-05-09T09:39:24.763Z,12.77
2023-05-09T09:41:51.066Z,8.07
2023-05-09T09:44:18.894Z,12.60
2023-05-09T09:46:47.040Z,10.13
2023-05-09T09:49:15.327Z,9.57
2023-05-09T09:51:41.940Z,19.48
2023-05-09T09:54:09.049Z,8.48
2023-05-09T09:56:40.006Z,11.10
2023-05-09T09:59:13.900Z,11.65
2023-05-09T10:02:00.293Z,8.50
2023-05-09T10:04:29.693Z,9.18
2023-05-09T10:06:58.259Z,9.77
2023-05-09T10:09:26.069Z,9.25
2023-05-09T10:11:53.906Z,9.25
2023-05-09T10:14:22.531Z,11.10
2023-05-09T10:16:50.674Z,9.57
2023-05-09T10:19:19.307Z,15.48
2023-05-09T10:21:50.730Z,11.40
2023-05-09T10:24:21.863Z,10.52
2023-05-09T10:26:50.166Z,11.48
2023-05-09T10:29:22.084Z,8.13
2023-05-09T10:31:53.729Z,10.43
2023-05-09T10:34:20.476Z,8.40
2023-05-09T10:36:48.078Z,9.60
2023-05-09T10:39:15.273Z,7.07
2023-05-09T10:41:41.692Z,6.25
2023-05-09T10:44:08.215Z,8.05
2023-05-09T10:46:35.599Z,9.00
2023-05-09T10:49:03.091Z,9.38
2023-05-09T10:51:29.568Z,9.23
2023-05-09T10:53:57.259Z,6.63
2023-05-09T10:56:26.202Z,8.65
2023-05-09T10:58:53.761Z,8.25
2023-05-09T11:01:33.832Z,9.10
2023-05-09T11:04:01.470Z,7.85
2023-05-09T11:06:43.048Z,7.10
2023-05-09T11:09:31.957Z,7.13
2023-05-09T11:12:01.516Z,8.52
2023-05-09T11:14:32.299Z,10.43
2023-05-09T11:17:00.459Z,10.35
2023-05-09T11:19:38.070Z,9.13
2023-05-09T11:22:15.066Z,11.18
2023-05-09T11:24:46.366Z,10.50
2023-05-09T11:27:16.573Z,12.30
2023-05-09T11:29:43.758Z,12.43
2023-05-09T11:32:14.186Z,11.50
2023-05-09T11:34:44.139Z,10.48
2023-05-09T11:37:11.906Z,9.40
2023-05-09T11:39:58.012Z,9.93
2023-05-09T11:42:25.767Z,12.32
2023-05-09T11:44:53.511Z,11.95
2023-05-09T11:47:20.140Z,11.98
2023-05-09T11:49:47.619Z,11.73
2023-05-09T11:52:13.937Z,20.30
2023-05-09T11:54:40.547Z,15.57
2023-05-09T11:57:08.034Z,19.58
2023-05-09T11:59:35.448Z,18.20
2023-05-09T12:02:05.828Z,16.55
2023-05-09T12:04:33.265Z,16.27
2023-05-09T12:06:59.665Z,14.15
2023-05-09T12:09:30.120Z,14.98
2023-05-09T12:11:56.455Z,14.43
2023-05-09T12:14:27.321Z,15.90
2023-05-09T12:16:54.791Z,13.65
2023-05-09T12:19:22.425Z,13.43
2023-05-09T12:21:48.736Z,11.50
2023-05-09T12:24:20.064Z,11.98
2023-05-09T12:26:46.848Z,13.98
2023-05-09T12:29:13.361Z,20.20
2023-05-09T12:31:42.780Z,16.83
2023-05-09T12:34:09.752Z,18.92
2023-05-09T12:36:36.449Z,16.75
2023-05-09T12:39:08.991Z,14.13
2023-05-09T12:41:43.856Z,15.68
2023-05-09T12:44:20.923Z,14.50
2023-05-09T12:46:55.946Z,13.32
2023-05-09T12:49:22.878Z,12.35
2023-05-09T12:51:50.621Z,12.25
2023-05-09T12:54:20.647Z,13.55
2023-05-09T12:56:47.342Z,15.57
2023-05-09T12:59:14.799Z,19.00
2023-05-09T13:01:43.089Z,19.33
2023-05-09T13:04:11.892Z,16.25
2023-05-09T13:06:47.927Z,19.27
2023-05-09T13:09:15.235Z,17.60
2023-05-09T13:11:41.671Z,15.18
2023-05-09T13:14:08.289Z,14.07
2023-05-09T13:16:34.969Z,11.18
2023-05-09T13:19:01.578Z,20.13
2023-05-09T13:21:28.542Z,14.18
2023-05-09T13:23:54.840Z,11.85
2023-05-09T13:26:21.654Z,14.25
2023-05-09T13:28:48.032Z,15.95
2023-05-09T13:31:14.528Z,17.35
2023-05-09T13:33:40.979Z,12.95
2023-05-09T13:36:10.176Z,11.00
2023-05-09T13:38:39.690Z,10.35
2023-05-09T13:41:06.088Z,13.18
2023-05-09T13:43:32.496Z,11.80
2023-05-09T13:46:00.832Z,10.30
2023-05-09T13:48:27.327Z,6.93
2023-05-09T13:50:53.708Z,8.07
2023-05-09T13:53:21.940Z,9.50
2023-05-09T13:55:48.959Z,12.05
2023-05-09T13:58:15.268Z,11.38
2023-05-09T14:00:41.600Z,14.13
2023-05-09T14:03:08.441Z,11.63
2023-05-09T14:05:34.774Z,16.45
2023-05-09T14:08:01.107Z,13.32
2023-05-09T14:10:27.549Z,11.27
2023-05-09T14:12:54.617Z,13.73
2023-05-09T14:15:20.952Z,13.13
2023-05-09T14:17:47.257Z,10.15
2023-05-09T14:20:15.009Z,9.20
2023-05-09T14:22:41.967Z,9.13
2023-05-09T14:25:08.852Z,9.52
2023-05-09T14:27:36.209Z,8.48
2023-05-09T14:30:03.660Z,8.35
2023-05-09T14:32:29.919Z,8.75
2023-05-09T14:34:57.933Z,11.82
2023-05-09T14:37:24.226Z,9.77
2023-05-09T14:39:50.772Z,10.07
2023-05-09T14:42:17.605Z,12.82
2023-05-09T14:44:46.313Z,13.85
2023-05-09T14:47:13.461Z,9.20
2023-05-09T14:49:40.609Z,9.63
2023-05-09T14:52:06.946Z,8.52
2023-05-09T14:54:34.066Z,10.40
2023-05-09T14:57:03.473Z,8.45
2023-05-09T14:59:29.775Z,9.30
2023-05-09T15:01:56.133Z,9.13
2023-05-09T15:04:27.470Z,7.13
2023-05-09T15:06:53.966Z,9.68
2023-05-09T15:09:20.776Z,12.23
2023-05-09T15:11:48.701Z,10.40
2023-05-09T15:14:15.910Z,11.23
2023-05-09T15:16:42.339Z,9.82
2023-05-09T15:19:08.737Z,9.70
2023-05-09T15:21:35.727Z,11.55
2023-05-09T15:24:02.790Z,8.15
2023-05-09T15:26:31.323Z,15.98
2023-05-09T15:28:57.640Z,16.30
2023-05-09T15:31:24.730Z,12.60
2023-05-09T15:33:51.357Z,10.75
2023-05-09T15:36:17.634Z,10.52
2023-05-09T15:38:47.561Z,9.85
2023-05-09T15:41:13.998Z,9.07
2023-05-09T15:43:40.401Z,7.75
2023-05-09T15:46:06.950Z,8.50
2023-05-09T15:48:33.318Z,8.25
2023-05-09T15:50:59.725Z,10.77
2023-05-09T15:53:26.952Z,9.15
2023-05-09T15:55:55.344Z,8.63
2023-05-09T15:58:21.669Z,7.40
2023-05-09T16:00:48.091Z,6.10
2023-05-09T16:03:14.447Z,6.30
2023-05-09T16:05:40.992Z,6.70
2023-05-09T16:08:07.650Z,7.50
2023-05-09T16:10:34.037Z,5.57
2023-05-09T16:13:01.086Z,6.15
2023-05-09T16:15:27.465Z,8.23
2023-05-09T16:17:53.795Z,6.78
2023-05-09T16:20:20.383Z,8.68
2023-05-09T16:22:46.745Z,7.20
2023-05-09T16:25:13.203Z,9.55
2023-05-09T16:27:39.583Z,8.02
2023-05-09T16:30:08.058Z,7.63
2023-05-09T16:32:34.436Z,7.00
2023-05-09T16:35:01.635Z,10.73
2023-05-09T16:37:29.039Z,8.80
2023-05-09T16:39:55.798Z,5.95
2023-05-09T16:42:22.109Z,8.48
2023-05-09T16:44:49.002Z,9.98
2023-05-09T16:47:15.998Z,8.35
2023-05-09T16:49:42.373Z,7.72
2023-05-09T16:52:08.707Z,9.35
2023-05-09T16:54:35.035Z,13.07
2023-05-09T16:57:02.514Z,10.25
2023-05-09T16:59:28.900Z,10.77
2023-05-09T17:01:56.906Z,17.20
2023-05-09T17:04:23.983Z,11.23
2023-05-09T17:06:51.055Z,11.35
2023-05-09T17:09:17.883Z,12.63
2023-05-09T17:11:44.186Z,15.55
2023-05-09T17:14:10.511Z,10.30
2023-05-09T17:16:38.076Z,16.10
2023-05-09T17:19:05.004Z,10.48
2023-05-09T17:21:32.098Z,11.23
2023-05-09T17:23:58.399Z,12.43
2023-05-09T17:26:25.130Z,10.30
2023-05-09T17:28:51.466Z,21.40
2023-05-09T17:31:17.840Z,22.23
2023-05-09T17:33:44.109Z,36.80
2023-05-09T17:36:10.436Z,12.65
2023-05-09T17:38:37.642Z,44.60
2023-05-09T17:41:04.360Z,23.92
2023-05-09T17:43:31.178Z,15.73
2023-05-09T17:45:57.975Z,14.05
2023-05-09T17:48:24.332Z,29.25
2023-05-09T17:50:50.754Z,17.48
2023-05-09T17:53:18.090Z,16.75
2023-05-09T17:55:45.079Z,9.23
2023-05-09T17:58:11.478Z,26.70
2023-05-09T18:00:37.951Z,38.40
2023-05-09T18:03:04.584Z,14.30
2023-05-09T18:05:31.242Z,20.40
2023-05-09T18:08:00.086Z,17.58
2023-05-09T18:10:27.366Z,11.20
2023-05-09T18:12:54.398Z,45.55
2023-05-09T18:15:20.806Z,42.63
2023-05-09T18:17:48.675Z,39.97
2023-05-09T18:20:15.292Z,43.90
2023-05-09T18:22:41.766Z,13.63
2023-05-09T18:25:08.739Z,12.27
2023-05-09T18:27:35.067Z,17.95
2023-05-09T18:30:02.078Z,12.93
2023-05-09T18:32:29.159Z,13.88
2023-05-09T18:34:55.509Z,9.20
2023-05-09T18:37:22.042Z,10.27
2023-05-09T18:39:48.351Z,13.90
2023-05-09T18:42:16.310Z,10.18
2023-05-09T18:44:42.963Z,10.55
2023-05-09T18:47:10.810Z,7.78
2023-05-09T18:49:38.114Z,11.10
2023-05-09T18:52:04.562Z,7.72
2023-05-09T18:54:30.910Z,8.45
2023-05-09T18:56:57.298Z,8.00
2023-05-09T18:59:23.800Z,7.93
2023-05-09T19:01:50.190Z,8.60
2023-05-09T19:04:18.733Z,10.35
2023-05-09T19:06:45.189Z,9.05
2023-05-09T19:09:11.669Z,8.43
2023-05-09T19:11:38.334Z,11.02
2023-05-09T19:14:04.757Z,8.68
2023-05-09T19:16:31.159Z,9.85
2023-05-09T19:18:58.184Z,9.05
2023-05-09T19:21:25.310Z,10.25
2023-05-09T19:23:51.731Z,9.02
2023-05-09T19:26:19.125Z,11.25
2023-05-09T19:28:46.325Z,9.10
2023-05-09T19:31:13.725Z,8.77
2023-05-09T19:33:40.867Z,9.52
2023-05-09T19:36:07.363Z,11.57
2023-05-09T19:38:34.378Z,12.00
2023-05-09T19:41:00.836Z,13.93
2023-05-09T19:43:27.410Z,10.93
2023-05-09T19:45:53.722Z,9.73
2023-05-09T19:48:20.077Z,10.10
2023-05-09T19:50:46.402Z,13.20
2023-05-09T19:53:12.803Z,17.65
2023-05-09T19:55:40.318Z,8.23
2023-05-09T19:58:06.660Z,9.75
2023-05-09T20:00:35.161Z,9.27
2023-05-09T20:03:03.114Z,11.35
2023-05-09T20:05:29.571Z,8.07
2023-05-09T20:07:55.852Z,12.57
2023-05-09T20:10:22.514Z,8.77
2023-05-09T20:12:49.468Z,8.80
2023-05-09T20:15:15.922Z,9.82
2023-05-09T20:17:42.301Z,9.20
2023-05-09T20:20:09.850Z,8.77
2023-05-09T20:22:39.064Z,12.30
2023-05-09T20:25:07.457Z,9.05
2023-05-09T20:27:34.795Z,10.60
2023-05-09T20:30:03.448Z,8.80
2023-05-09T20:32:29.938Z,10.20
2023-05-09T20:34:56.324Z,11.15
2023-05-09T20:37:22.640Z,10.00
2023-05-09T20:39:49.011Z,10.13
2023-05-09T20:42:15.337Z,9.43
2023-05-09T20:44:41.660Z,11.05
2023-05-09T20:47:08.581Z,11.27
2023-05-09T20:49:34.918Z,10.68
2023-05-09T20:52:01.252Z,10.85
2023-05-09T20:54:28.270Z,14.23
2023-05-09T20:56:54.627Z,14.20
2023-05-09T20:59:20.937Z,14.25
2023-05-09T21:01:47.370Z,12.82
2023-05-09T21:04:15.099Z,9.00
2023-05-09T21:06:41.411Z,8.20
2023-05-09T21:09:08.337Z,8.18
2023-05-09T21:11:34.725Z,5.32
2023-05-09T21:14:01.078Z,4.85
2023-05-09T21:16:27.746Z,4.28
2023-05-09T21:18:54.305Z,4.40
2023-05-09T21:21:21.648Z,6.28
2023-05-09T21:23:48.022Z,3.90
2023-05-09T21:26:14.448Z,6.03
2023-05-09T21:28:40.723Z,3.30
2023-05-09T21:31:09.738Z,5.32
2023-05-09T21:33:37.485Z,4.00
2023-05-09T21:36:03.894Z,4.35
2023-05-09T21:38:30.877Z,3.42
2023-05-09T21:40:57.689Z,3.78
2023-05-09T21:43:24.015Z,4.15
2023-05-09T21:45:50.373Z,3.28
2023-05-09T21:48:16.741Z,6.47
2023-05-09T21:50:44.049Z,3.50
2023-05-09T21:53:10.369Z,3.30
2023-05-09T21:55:37.281Z,2.95
2023-05-09T21:58:03.594Z,3.30
2023-05-09T22:00:30.152Z,3.45
2023-05-09T22:02:56.639Z,3.55
2023-05-09T22:05:23.544Z,2.63
2023-05-09T22:07:50.129Z,4.68
2023-05-09T22:10:18.528Z,2.45
2023-05-09T22:12:45.635Z,2.20
2023-05-09T22:15:12.377Z,1.98
2023-05-09T22:17:38.733Z,2.28
2023-05-09T22:20:06.329Z,2.35
2023-05-09T22:22:32.806Z,2.72
2023-05-09T22:24:59.103Z,2.67
2023-05-09T22:27:25.540Z,3.10
2023-05-09T22:29:52.494Z,2.20
2023-05-09T22:32:18.841Z,2.63
2023-05-09T22:34:46.968Z,4.22
2023-05-09T22:37:13.373Z,2.55
2023-05-09T22:39:39.709Z,2.42
2023-05-09T22:42:08.604Z,1.83
2023-05-09T22:44:34.947Z,2.20
2023-05-09T22:47:02.343Z,3.47
2023-05-09T22:49:28.646Z,3.45
2023-05-09T23:00:41.757Z,2.78
2023-05-09T23:03:08.206Z,5.45
2023-05-09T23:05:35.294Z,3.55
2023-05-09T23:08:01.580Z,2.90
2023-05-09T23:10:28.151Z,3.00
2023-05-09T23:12:54.509Z,3.05
2023-05-09T23:15:21.578Z,3.60
2023-05-09T23:17:47.924Z,2.85
2023-05-09T23:20:14.451Z,3.08
2023-05-09T23:22:40.985Z,3.63
2023-05-09T23:25:08.564Z,4.10
2023-05-09T23:27:34.975Z,3.33
2023-05-09T23:30:01.352Z,5.45
2023-05-09T23:32:28.488Z,4.28
2023-05-09T23:34:54.800Z,3.28
2023-05-09T23:37:21.203Z,3.03
2023-05-09T23:39:47.498Z,2.65
2023-05-09T23:42:13.790Z,2.30
2023-05-09T23:44:40.091Z,1.92
2023-05-09T23:47:06.432Z,2.40
2023-05-09T23:49:33.420Z,2.65
2023-05-09T23:51:59.771Z,3.83
2023-05-09T23:54:26.209Z,2.78
2023-05-09T23:56:52.540Z,3.75
2023-05-09T23:59:18.806Z,3.10
